Terminal Aerodrome Forecast
Issued by NWS

Home | Current Version | Previous Version | Text Only | Print | Product List | Glossary On
Versions: 1 2 3 4 5 6 7 8 9 10 11 12 13 14 15 16 17
826
FTUS43 KGRB 230520
TAFMTW
TAF
KMTW 230520Z 2306/2406 22008KT 6SM -SN SCT025 OVC040
      TEMPO 2306/2310 4SM -FZRASN BR
     FM231000 22007KT P6SM BKN050
     FM231500 25008KT P6SM SCT250
     FM232300 22005KT P6SM BKN250
     FM240500 21008KT P6SM BKN080=

USA.gov is the U.S. government's official web portal to all federal, state and local government web resources and services.